Sichem Eagle — 9HRB9 — position and weather

sailwx.info

Track history (hours):
 
Tides and Currents Weather Stations Pressure Air Temp Water Temp Dewpoint Dewpoint Depression Visibility Wind Speed Wind Dir Waves Ship Positions

Sichem Eagle

Last reported at 2017-Dec-11 16:58 UTC. Time now 2017-Dec-14 04:30 UTC.
Position N 52°25' E 004°45'.

Length 171 m; draft 8.2 m.

Type: Tanker. MMSI: 249512000.

Date/timePositionNaut miles runAvg speedWind from/ knotsBaromVisibWave heightAir tempDewpointWater temp
2017-Dec-11 16:58N 52°25' E 004°45'0 0.0
2017-Dec-11 16:28N 52°25' E 004°45'0 0.0
2017-Dec-11 16:00N 52°25' E 004°45'0 0.0
2017-Dec-11 15:28N 52°25' E 004°45'0 0.0
2017-Dec-11 15:00N 52°25' E 004°45'0 0.0
2017-Dec-11 14:30N 52°25' E 004°45'0 0.0
2017-Dec-11 14:01N 52°25' E 004°45'0 0.0
2017-Dec-11 13:28N 52°25' E 004°45'0 0.0
2017-Dec-11 13:01N 52°25' E 004°45'0 0.0
2017-Dec-11 12:25N 52°25' E 004°45'0 0.0
2017-Dec-11 12:00N 52°25' E 004°45'0 0.0
2017-Dec-11 11:31N 52°25' E 004°45'0 0.0
2017-Dec-11 11:00N 52°25' E 004°45'0 0.0
2017-Dec-11 10:28N 52°25' E 004°45'0 0.0
2017-Dec-11 09:58N 52°25' E 004°45'0 0.0
2017-Dec-11 09:31N 52°25' E 004°45'0 0.0
2017-Dec-11 09:01N 52°25' E 004°45'0 0.0
2017-Dec-11 08:31N 52°25' E 004°45'0 0.0
2017-Dec-11 07:58N 52°25' E 004°45'0 0.0
2017-Dec-11 07:03N 52°25' E 004°45'0 0.0
2017-Dec-11 06:54N 52°25' E 004°45'0 0.0
2017-Dec-11 06:28N 52°25' E 004°45'0 0.0
2017-Dec-11 05:58N 52°25' E 004°45'0 0.0
2017-Dec-11 05:31N 52°25' E 004°45'0 0.0
2017-Dec-11 05:01N 52°25' E 004°45'0 0.0
2017-Dec-11 04:27N 52°25' E 004°45'0 0.0
2017-Dec-11 04:00N 52°25' E 004°45'0 0.0
2017-Dec-11 03:28N 52°25' E 004°45'0 0.0
2017-Dec-11 03:01N 52°25' E 004°45'0 0.0
2017-Dec-11 02:30N 52°25' E 004°45'0 0.0
2017-Dec-11 02:00N 52°25' E 004°45'0 0.0
2017-Dec-11 01:25N 52°25' E 004°45'0 0.0
2017-Dec-11 01:00N 52°25' E 004°45'0 0.0
2017-Dec-11 00:28N 52°25' E 004°45'0 0.0
2017-Dec-11 00:00N 52°25' E 004°45'0 0.0
2017-Dec-10 23:31N 52°25' E 004°45'0 0.0
2017-Dec-10 23:00N 52°25' E 004°45'0 0.0
2017-Dec-10 22:28N 52°25' E 004°45'0 0.0
2017-Dec-10 21:58N 52°25' E 004°45'0 0.0
2017-Dec-10 21:27N 52°25' E 004°45'0 0.0
2017-Dec-10 20:52N 52°25' E 004°45'0 0.0
2017-Dec-10 20:31N 52°25' E 004°45'0 0.0
2017-Dec-10 20:01N 52°25' E 004°45'0 0.0
2017-Dec-10 19:28N 52°25' E 004°45'0 0.0
2017-Dec-10 17:52N 52°25' E 004°45'0 0.0
2017-Dec-10 17:30N 52°25' E 004°45'0 0.0
2017-Dec-10 16:58N 52°25' E 004°45'0 0.0
2017-Dec-10 16:28N 52°25' E 004°45'0 0.0
2017-Dec-10 15:57N 52°25' E 004°45'0 0.0
2017-Dec-10 15:21N 52°25' E 004°45'0 0.0
2017-Dec-10 15:00N 52°25' E 004°45'0 0.0
2017-Dec-10 13:39N 52°25' E 004°45'0 0.0
2017-Dec-10 13:21N 52°25' E 004°45'0 0.0
2017-Dec-10 12:57N 52°25' E 004°45'0 0.0
2017-Dec-10 12:30N 52°25' E 004°45'0 0.0
2017-Dec-10 11:24N 52°25' E 004°45'0 0.0
2017-Dec-10 10:58N 52°25' E 004°45'0 0.0
2017-Dec-10 10:30N 52°25' E 004°45'1 2.7
2017-Dec-10 10:01N 52°26' E 004°44'4 7.9
2017-Dec-10 09:31N 52°28' E 004°38'1 2.0
2017-Dec-10 09:01N 52°28' E 004°36'3 5.1
2017-Dec-10 08:31N 52°28' E 004°32'510.3
2017-Dec-10 08:00N 52°29' E 004°24'510.1
2017-Dec-10 07:30N 52°29' E 004°16'510.9
2017-Dec-10 07:00N 52°28' E 004°07'611.9
2017-Dec-10 06:30N 52°27' E 003°57'2 3.5
2017-Dec-10 06:00N 52°25' E 003°56'0 0.2
2017-Dec-10 05:30N 52°25' E 003°56'0 0.2
2017-Dec-10 05:00N 52°25' E 003°56'0 0.1
2017-Dec-10 04:30N 52°25' E 003°56'0 0.0
2017-Dec-10 03:57N 52°25' E 003°56'0 0.1
2017-Dec-10 03:30N 52°25' E 003°56'0 0.1
2017-Dec-10 03:00N 52°25' E 003°56'0 0.1
2017-Dec-10 02:30N 52°25' E 003°56'0 0.0
2017-Dec-10 02:00N 52°25' E 003°56'0 0.1
2017-Dec-10 01:30N 52°25' E 003°56'0 0.0
2017-Dec-10 01:00N 52°25' E 003°56'0 0.0
2017-Dec-10 00:30N 52°25' E 003°56'1 1.4
2017-Dec-10 00:00N 52°25' E 003°57'3 6.7
2017-Dec-09 23:30N 52°23' E 003°52'612.6
2017-Dec-09 23:00N 52°21' E 003°42'5814.5
2017-Dec-09 18:58N 51°42' E 002°32'915.4
2017-Dec-09 18:23N 51°36' E 002°21'615.8
2017-Dec-09 17:59N 51°31' E 002°15'816.0
2017-Dec-09 17:30N 51°25' E 002°08'815.3
2017-Dec-09 17:01N 51°17' E 002°06'815.0
2017-Dec-09 16:30N 51°12' E 001°58'816.6
2017-Dec-09 16:01N 51°07' E 001°47'816.9
2017-Dec-09 15:31N 51°01' E 001°38'916.3
2017-Dec-09 14:59N 50°54' E 001°29'4014.3
2017-Dec-09 12:10N 50°27' E 000°42'515.7
2017-Dec-09 11:52N 50°26' E 000°35'915.5
2017-Dec-09 11:16N 50°23' E 000°21'715.2
2017-Dec-09 10:49N 50°22' E 000°11'514.9
2017-Dec-09 10:30N 50°20' E 000°04'714.6
2017-Dec-09 10:00N 50°18' W 000°07'714.2
2017-Dec-09 09:30N 50°17' W 000°18'9312.5
2017-Dec-09 02:05N 49°52' W 002°37'114.6
2017-Dec-09 02:00N 49°52' W 002°39'714.7
2017-Dec-09 01:30N 49°50' W 002°50'1214.6
2017-Dec-09 00:42N 49°44' W 003°06'414.6
2017-Dec-09 00:24N 49°42' W 003°12'6114.7
2017-Dec-08 20:18N 49°11' W 004°32'514.7
2017-Dec-08 19:59N 49°09' W 004°38'814.7
2017-Dec-08 19:26N 49°05' W 004°48'614.6
2017-Dec-08 19:00N 49°02' W 004°57'714.4
2017-Dec-08 18:30N 48°58' W 005°06'814.4
2017-Dec-08 17:59N 48°54' W 005°16'714.1
2017-Dec-08 17:28N 48°51' W 005°26'713.9
2017-Dec-08 17:00N 48°47' W 005°34'713.2
2017-Dec-08 16:30N 48°42' W 005°40'612.9
2017-Dec-08 16:00N 48°36' W 005°44'138 8.7
2017-Dec-08 00:05N 46°31' W 004°17'112.2
2017-Dec-08 00:01N 46°31' W 004°16'912.2
2017-Dec-07 23:15N 46°27' W 004°04'412.1
2017-Dec-07 22:56N 46°26' W 003°58'8210.9
2017-Dec-07 15:24N 46°06' W 002°03'410.7
2017-Dec-07 15:00N 46°07' W 001°57'510.8
2017-Dec-07 14:31N 46°09' W 001°50'611.8
2017-Dec-07 14:01N 46°08' W 001°42'611.9
2017-Dec-07 13:31N 46°07' W 001°33'612.2
2017-Dec-07 13:01N 46°07' W 001°24'611.2
2017-Dec-07 12:31N 46°05' W 001°17'1 2.8
2017-Dec-07 11:59N 46°04' W 001°16'0 0.1
2017-Dec-07 11:29N 46°04' W 001°16'0 0.0
2017-Dec-07 10:59N 46°04' W 001°16'0 0.0
2017-Dec-07 10:29N 46°04' W 001°16'0 0.0
2017-Dec-07 09:59N 46°04' W 001°16'0 0.0
2017-Dec-07 09:29N 46°04' W 001°16'0 0.0
2017-Dec-07 08:59N 46°04' W 001°16'0 0.0
2017-Dec-07 08:29N 46°04' W 001°16'0 0.0
2017-Dec-07 07:59N 46°04' W 001°16'0 0.0
2017-Dec-07 07:29N 46°04' W 001°16'0 0.0
2017-Dec-07 06:59N 46°04' W 001°16'0 0.1
2017-Dec-07 06:29N 46°04' W 001°16'0 0.0
2017-Dec-07 05:59N 46°04' W 001°16'0 0.0
2017-Dec-07 05:29N 46°04' W 001°16'0 0.3
2017-Dec-07 04:59N 46°03' W 001°16'0 0.2
2017-Dec-07 04:29N 46°03' W 001°16'0 0.1
2017-Dec-07 03:59N 46°03' W 001°16'0 0.0
2017-Dec-07 03:29N 46°03' W 001°16'0 0.0
2017-Dec-07 02:59N 46°03' W 001°16'0 0.0
2017-Dec-07 02:29N 46°03' W 001°16'0 0.0
2017-Dec-07 01:59N 46°03' W 001°16'0 0.0
2017-Dec-07 01:29N 46°03' W 001°16'0 0.0
2017-Dec-07 00:59N 46°03' W 001°16'0 0.3
2017-Dec-07 00:29N 46°03' W 001°16'0 0.2
2017-Dec-06 23:59N 46°04' W 001°16'0 0.0
2017-Dec-06 23:29N 46°03' W 001°16'0 0.0
2017-Dec-06 22:59N 46°03' W 001°16'0 0.0
2017-Dec-06 22:29N 46°03' W 001°16'0 0.0
2017-Dec-06 21:59N 46°03' W 001°16'0 0.0
2017-Dec-06 21:29N 46°03' W 001°16'0 0.0
2017-Dec-06 20:59N 46°03' W 001°16'  
2017-Dec-04 10:29N 46°03' W 001°16'0 0.2
2017-Dec-04 09:59N 46°03' W 001°16'0 0.2
2017-Dec-04 09:29N 46°03' W 001°16'0 0.0
2017-Dec-04 08:59N 46°03' W 001°16'0 0.0
2017-Dec-04 08:29N 46°03' W 001°16'0 0.0
2017-Dec-04 07:59N 46°03' W 001°16'0 0.0
2017-Dec-04 07:29N 46°03' W 001°16'0 0.0
2017-Dec-04 06:59N 46°03' W 001°16'0 0.0
2017-Dec-04 06:29N 46°03' W 001°16'0 0.0
2017-Dec-04 05:59N 46°03' W 001°16'0 0.0
2017-Dec-04 05:29N 46°03' W 001°16'0 0.2
2017-Dec-04 04:59N 46°03' W 001°16'0 0.3
2017-Dec-04 04:29N 46°03' W 001°16'0 0.1
2017-Dec-04 03:59N 46°03' W 001°16'0 0.0
2017-Dec-04 03:29N 46°03' W 001°16'0 0.0
2017-Dec-04 02:59N 46°03' W 001°16'0 0.0
2017-Dec-04 02:29N 46°03' W 001°16'0 0.0
2017-Dec-04 01:59N 46°03' W 001°16'0 0.0
2017-Dec-04 01:29N 46°03' W 001°16'0 0.0
2017-Dec-04 00:59N 46°03' W 001°16'0 0.0
2017-Dec-04 00:29N 46°03' W 001°16'0 0.0
2017-Dec-03 23:59N 46°03' W 001°16'0 0.0
2017-Dec-03 23:29N 46°03' W 001°16'0 0.0
2017-Dec-03 22:59N 46°03' W 001°16'0 0.0
2017-Dec-03 22:26N 46°03' W 001°16'0 0.1
2017-Dec-03 21:59N 46°03' W 001°16'0 0.3
2017-Dec-03 21:29N 46°04' W 001°16'0 0.1
2017-Dec-03 20:59N 46°03' W 001°16'0 0.0
2017-Dec-03 20:29N 46°03' W 001°16'0 0.0
2017-Dec-03 19:59N 46°03' W 001°16'0 0.0
2017-Dec-03 19:29N 46°03' W 001°16'0 0.0
2017-Dec-03 18:59N 46°03' W 001°16'0 0.0
2017-Dec-03 18:29N 46°03' W 001°16'0 0.0
2017-Dec-03 17:59N 46°03' W 001°16'0 0.0
2017-Dec-03 17:29N 46°03' W 001°16'0 0.0
2017-Dec-03 16:59N 46°03' W 001°16'0 0.0
2017-Dec-03 16:29N 46°03' W 001°16'0 0.0
2017-Dec-03 15:59N 46°04' W 001°16'0 0.0
2017-Dec-03 15:29N 46°03' W 001°16'0 0.2
2017-Dec-03 14:59N 46°03' W 001°16'0 0.1
2017-Dec-03 14:29N 46°03' W 001°16'0 0.0
2017-Dec-03 13:59N 46°03' W 001°16'0 0.1
2017-Dec-03 13:29N 46°03' W 001°16'0 0.0
2017-Dec-03 12:59N 46°03' W 001°16'0 0.0
2017-Dec-03 12:29N 46°03' W 001°16'0 0.0
2017-Dec-03 11:59N 46°03' W 001°16'0 0.0
2017-Dec-03 11:29N 46°03' W 001°16'0 0.0
2017-Dec-03 10:59N 46°03' W 001°16'0 0.0
2017-Dec-03 10:29N 46°03' W 001°16'0 0.0
2017-Dec-03 09:59N 46°03' W 001°16'0 0.2
2017-Dec-03 09:29N 46°03' W 001°16'0 0.2
2017-Dec-03 08:59N 46°04' W 001°16'0 0.1
2017-Dec-03 08:29N 46°04' W 001°16'0 0.0
2017-Dec-03 07:59N 46°04' W 001°16'0 0.0
2017-Dec-03 07:29N 46°03' W 001°16'0 0.0
2017-Dec-03 06:59N 46°03' W 001°16'0 0.0
2017-Dec-03 06:29N 46°03' W 001°16'0 0.1
2017-Dec-03 05:59N 46°03' W 001°16'0 0.0
2017-Dec-03 05:29N 46°03' W 001°16'0 0.0
2017-Dec-03 04:59N 46°03' W 001°16'0 0.0
2017-Dec-03 04:29N 46°03' W 001°16'0 0.2
2017-Dec-03 03:59N 46°03' W 001°16'0 0.2
2017-Dec-03 03:29N 46°03' W 001°16'0 0.2
2017-Dec-03 02:59N 46°03' W 001°16'0 0.8
2017-Dec-03 02:30N 46°03' W 001°16'5 9.1
2017-Dec-03 02:00N 46°08' W 001°15'2 3.7
2017-Dec-03 01:29N 46°09' W 001°14'0 0.0
2017-Dec-03 00:59N 46°09' W 001°14'0 0.0
2017-Dec-03 00:29N 46°09' W 001°14'0 0.0
2017-Dec-02 23:59N 46°09' W 001°14'0 0.0
2017-Dec-02 23:29N 46°09' W 001°14'0 0.0
2017-Dec-02 22:59N 46°09' W 001°14'0 0.0
2017-Dec-02 22:29N 46°09' W 001°14'0 0.0
2017-Dec-02 21:59N 46°09' W 001°14'0 0.0
2017-Dec-02 21:29N 46°09' W 001°14'0 0.0
2017-Dec-02 20:59N 46°10' W 001°14'0 0.0
2017-Dec-02 20:29N 46°09' W 001°14'0 0.0
2017-Dec-02 19:59N 46°09' W 001°14'0 0.0
2017-Dec-02 19:29N 46°09' W 001°14'0 0.0
2017-Dec-02 18:59N 46°09' W 001°14'0 0.0
2017-Dec-02 18:29N 46°09' W 001°14'0 0.0
2017-Dec-02 17:59N 46°09' W 001°14'0 0.0
2017-Dec-02 17:29N 46°09' W 001°14'0 0.0
2017-Dec-02 16:59N 46°09' W 001°14'0 0.0
2017-Dec-02 16:29N 46°09' W 001°14'0 0.0
2017-Dec-02 15:59N 46°09' W 001°14'0 0.0
2017-Dec-02 15:29N 46°09' W 001°14'0 0.0
2017-Dec-02 14:59N 46°09' W 001°14'0 0.0
2017-Dec-02 14:29N 46°09' W 001°14'0 0.0
2017-Dec-02 13:59N 46°09' W 001°14'0 0.0
2017-Dec-02 13:29N 46°09' W 001°14'0 0.0
2017-Dec-02 12:59N 46°09' W 001°14'0 0.0
2017-Dec-02 12:29N 46°09' W 001°14'0 0.0
2017-Dec-02 11:59N 46°09' W 001°14'0 0.0
2017-Dec-02 11:29N 46°09' W 001°14'0 0.0
2017-Dec-02 10:59N 46°09' W 001°14'0 0.0
2017-Dec-02 10:29N 46°09' W 001°14'0 0.0
2017-Dec-02 09:59N 46°09' W 001°14'0 0.0
2017-Dec-02 09:29N 46°09' W 001°14'0 0.0
2017-Dec-02 08:59N 46°09' W 001°14'0 0.0
2017-Dec-02 08:26N 46°09' W 001°14'0 0.0
2017-Dec-02 07:59N 46°09' W 001°14'0 0.0
2017-Dec-02 07:29N 46°09' W 001°14'0 0.0
2017-Dec-02 06:59N 46°09' W 001°14'0 0.0
2017-Dec-02 06:29N 46°09' W 001°14'0 0.0
2017-Dec-02 05:59N 46°09' W 001°14'0 0.0
2017-Dec-02 05:29N 46°09' W 001°14'0 0.0
2017-Dec-02 04:59N 46°09' W 001°14'0 0.0
2017-Dec-02 04:29N 46°09' W 001°14'0 0.0
2017-Dec-02 03:59N 46°09' W 001°14'0 0.0
2017-Dec-02 03:29N 46°09' W 001°14'0 0.0
2017-Dec-02 02:59N 46°09' W 001°14'0 0.0
2017-Dec-02 02:29N 46°09' W 001°14'0 0.0
2017-Dec-02 01:59N 46°09' W 001°14'0 0.0
2017-Dec-02 01:26N 46°09' W 001°14'0 0.0
2017-Dec-02 00:59N 46°09' W 001°14'0 0.0
2017-Dec-02 00:29N 46°09' W 001°14'0 0.0
2017-Dec-01 23:59N 46°09' W 001°14'0 0.0
2017-Dec-01 23:29N 46°09' W 001°14'0 0.0
2017-Dec-01 22:59N 46°09' W 001°14'0 0.0
2017-Dec-01 22:29N 46°09' W 001°14'0 0.0
2017-Dec-01 21:59N 46°09' W 001°14'0 0.0
2017-Dec-01 21:29N 46°09' W 001°14'0 0.0
2017-Dec-01 20:59N 46°09' W 001°14'0 0.0
2017-Dec-01 20:29N 46°09' W 001°14'0 0.0
2017-Dec-01 19:59N 46°09' W 001°14'0 0.0
2017-Dec-01 19:29N 46°09' W 001°14'0 0.0
2017-Dec-01 18:59N 46°09' W 001°14'0 0.0
2017-Dec-01 18:29N 46°09' W 001°14'0 0.0
2017-Dec-01 17:59N 46°09' W 001°14'0 0.0
2017-Dec-01 17:29N 46°09' W 001°14'0 0.0
2017-Dec-01 16:59N 46°09' W 001°14'  
Track history (hours):
 
Tides and Currents Weather Stations Pressure Air Temp Water Temp Dewpoint Dewpoint Depression Visibility Wind Speed Wind Dir Waves Ship Positions

Sichem Eagle

Last reported at 2017-Dec-11 16:58 UTC. Time now 2017-Dec-14 04:30 UTC.
Position N 52°25' E 004°45'.

Length 171 m; draft 8.2 m.

Type: Tanker. MMSI: 249512000.

Date/timePositionNaut miles runAvg speedWind from/ knotsBaromVisibWave heightAir tempDewpointWater temp
2017-Dec-11 16:58N 52°25' E 004°45'0 0.0
2017-Dec-11 16:28N 52°25' E 004°45'0 0.0
2017-Dec-11 16:00N 52°25' E 004°45'0 0.0
2017-Dec-11 15:28N 52°25' E 004°45'0 0.0
2017-Dec-11 15:00N 52°25' E 004°45'0 0.0
2017-Dec-11 14:30N 52°25' E 004°45'0 0.0
2017-Dec-11 14:01N 52°25' E 004°45'0 0.0
2017-Dec-11 13:28N 52°25' E 004°45'0 0.0
2017-Dec-11 13:01N 52°25' E 004°45'0 0.0
2017-Dec-11 12:25N 52°25' E 004°45'0 0.0
2017-Dec-11 12:00N 52°25' E 004°45'0 0.0
2017-Dec-11 11:31N 52°25' E 004°45'0 0.0
2017-Dec-11 11:00N 52°25' E 004°45'0 0.0
2017-Dec-11 10:28N 52°25' E 004°45'0 0.0
2017-Dec-11 09:58N 52°25' E 004°45'0 0.0
2017-Dec-11 09:31N 52°25' E 004°45'0 0.0
2017-Dec-11 09:01N 52°25' E 004°45'0 0.0
2017-Dec-11 08:31N 52°25' E 004°45'0 0.0
2017-Dec-11 07:58N 52°25' E 004°45'0 0.0
2017-Dec-11 07:03N 52°25' E 004°45'0 0.0
2017-Dec-11 06:54N 52°25' E 004°45'0 0.0
2017-Dec-11 06:28N 52°25' E 004°45'0 0.0
2017-Dec-11 05:58N 52°25' E 004°45'0 0.0
2017-Dec-11 05:31N 52°25' E 004°45'0 0.0
2017-Dec-11 05:01N 52°25' E 004°45'0 0.0
2017-Dec-11 04:27N 52°25' E 004°45'0 0.0
2017-Dec-11 04:00N 52°25' E 004°45'0 0.0
2017-Dec-11 03:28N 52°25' E 004°45'0 0.0
2017-Dec-11 03:01N 52°25' E 004°45'0 0.0
2017-Dec-11 02:30N 52°25' E 004°45'0 0.0
2017-Dec-11 02:00N 52°25' E 004°45'0 0.0
2017-Dec-11 01:25N 52°25' E 004°45'0 0.0
2017-Dec-11 01:00N 52°25' E 004°45'0 0.0
2017-Dec-11 00:28N 52°25' E 004°45'0 0.0
2017-Dec-11 00:00N 52°25' E 004°45'0 0.0
2017-Dec-10 23:31N 52°25' E 004°45'0 0.0
2017-Dec-10 23:00N 52°25' E 004°45'0 0.0
2017-Dec-10 22:28N 52°25' E 004°45'0 0.0
2017-Dec-10 21:58N 52°25' E 004°45'0 0.0
2017-Dec-10 21:27N 52°25' E 004°45'0 0.0
2017-Dec-10 20:52N 52°25' E 004°45'0 0.0
2017-Dec-10 20:31N 52°25' E 004°45'0 0.0
2017-Dec-10 20:01N 52°25' E 004°45'0 0.0
2017-Dec-10 19:28N 52°25' E 004°45'0 0.0
2017-Dec-10 17:52N 52°25' E 004°45'0 0.0
2017-Dec-10 17:30N 52°25' E 004°45'0 0.0
2017-Dec-10 16:58N 52°25' E 004°45'0 0.0
2017-Dec-10 16:28N 52°25' E 004°45'0 0.0
2017-Dec-10 15:57N 52°25' E 004°45'0 0.0
2017-Dec-10 15:21N 52°25' E 004°45'0 0.0
2017-Dec-10 15:00N 52°25' E 004°45'0 0.0
2017-Dec-10 13:39N 52°25' E 004°45'0 0.0
2017-Dec-10 13:21N 52°25' E 004°45'0 0.0
2017-Dec-10 12:57N 52°25' E 004°45'0 0.0
2017-Dec-10 12:30N 52°25' E 004°45'0 0.0
2017-Dec-10 11:24N 52°25' E 004°45'0 0.0
2017-Dec-10 10:58N 52°25' E 004°45'0 0.0
2017-Dec-10 10:30N 52°25' E 004°45'1 2.7
2017-Dec-10 10:01N 52°26' E 004°44'4 7.9
2017-Dec-10 09:31N 52°28' E 004°38'1 2.0
2017-Dec-10 09:01N 52°28' E 004°36'3 5.1
2017-Dec-10 08:31N 52°28' E 004°32'510.3
2017-Dec-10 08:00N 52°29' E 004°24'510.1
2017-Dec-10 07:30N 52°29' E 004°16'510.9
2017-Dec-10 07:00N 52°28' E 004°07'611.9
2017-Dec-10 06:30N 52°27' E 003°57'2 3.5
2017-Dec-10 06:00N 52°25' E 003°56'0 0.2
2017-Dec-10 05:30N 52°25' E 003°56'0 0.2
2017-Dec-10 05:00N 52°25' E 003°56'0 0.1
2017-Dec-10 04:30N 52°25' E 003°56'0 0.0
2017-Dec-10 03:57N 52°25' E 003°56'0 0.1
2017-Dec-10 03:30N 52°25' E 003°56'0 0.1
2017-Dec-10 03:00N 52°25' E 003°56'0 0.1
2017-Dec-10 02:30N 52°25' E 003°56'0 0.0
2017-Dec-10 02:00N 52°25' E 003°56'0 0.1
2017-Dec-10 01:30N 52°25' E 003°56'0 0.0
2017-Dec-10 01:00N 52°25' E 003°56'0 0.0
2017-Dec-10 00:30N 52°25' E 003°56'1 1.4
2017-Dec-10 00:00N 52°25' E 003°57'3 6.7
2017-Dec-09 23:30N 52°23' E 003°52'612.6
2017-Dec-09 23:00N 52°21' E 003°42'5814.5
2017-Dec-09 18:58N 51°42' E 002°32'915.4
2017-Dec-09 18:23N 51°36' E 002°21'615.8
2017-Dec-09 17:59N 51°31' E 002°15'816.0
2017-Dec-09 17:30N 51°25' E 002°08'815.3
2017-Dec-09 17:01N 51°17' E 002°06'815.0
2017-Dec-09 16:30N 51°12' E 001°58'816.6
2017-Dec-09 16:01N 51°07' E 001°47'816.9
2017-Dec-09 15:31N 51°01' E 001°38'916.3
2017-Dec-09 14:59N 50°54' E 001°29'4014.3
2017-Dec-09 12:10N 50°27' E 000°42'515.7
2017-Dec-09 11:52N 50°26' E 000°35'915.5
2017-Dec-09 11:16N 50°23' E 000°21'715.2
2017-Dec-09 10:49N 50°22' E 000°11'514.9
2017-Dec-09 10:30N 50°20' E 000°04'714.6
2017-Dec-09 10:00N 50°18' W 000°07'714.2
2017-Dec-09 09:30N 50°17' W 000°18'9312.5
2017-Dec-09 02:05N 49°52' W 002°37'114.6
2017-Dec-09 02:00N 49°52' W 002°39'714.7
2017-Dec-09 01:30N 49°50' W 002°50'1214.6
2017-Dec-09 00:42N 49°44' W 003°06'414.6
2017-Dec-09 00:24N 49°42' W 003°12'6114.7
2017-Dec-08 20:18N 49°11' W 004°32'514.7
2017-Dec-08 19:59N 49°09' W 004°38'814.7
2017-Dec-08 19:26N 49°05' W 004°48'614.6
2017-Dec-08 19:00N 49°02' W 004°57'714.4
2017-Dec-08 18:30N 48°58' W 005°06'814.4
2017-Dec-08 17:59N 48°54' W 005°16'714.1
2017-Dec-08 17:28N 48°51' W 005°26'713.9
2017-Dec-08 17:00N 48°47' W 005°34'713.2
2017-Dec-08 16:30N 48°42' W 005°40'612.9
2017-Dec-08 16:00N 48°36' W 005°44'138 8.7
2017-Dec-08 00:05N 46°31' W 004°17'112.2
2017-Dec-08 00:01N 46°31' W 004°16'912.2
2017-Dec-07 23:15N 46°27' W 004°04'412.1
2017-Dec-07 22:56N 46°26' W 003°58'8210.9
2017-Dec-07 15:24N 46°06' W 002°03'410.7
2017-Dec-07 15:00N 46°07' W 001°57'510.8
2017-Dec-07 14:31N 46°09' W 001°50'611.8
2017-Dec-07 14:01N 46°08' W 001°42'611.9
2017-Dec-07 13:31N 46°07' W 001°33'612.2
2017-Dec-07 13:01N 46°07' W 001°24'611.2
2017-Dec-07 12:31N 46°05' W 001°17'1 2.8
2017-Dec-07 11:59N 46°04' W 001°16'0 0.1
2017-Dec-07 11:29N 46°04' W 001°16'0 0.0
2017-Dec-07 10:59N 46°04' W 001°16'0 0.0
2017-Dec-07 10:29N 46°04' W 001°16'0 0.0
2017-Dec-07 09:59N 46°04' W 001°16'0 0.0
2017-Dec-07 09:29N 46°04' W 001°16'0 0.0
2017-Dec-07 08:59N 46°04' W 001°16'0 0.0
2017-Dec-07 08:29N 46°04' W 001°16'0 0.0
2017-Dec-07 07:59N 46°04' W 001°16'0 0.0
2017-Dec-07 07:29N 46°04' W 001°16'0 0.0
2017-Dec-07 06:59N 46°04' W 001°16'0 0.1
2017-Dec-07 06:29N 46°04' W 001°16'0 0.0
2017-Dec-07 05:59N 46°04' W 001°16'0 0.0
2017-Dec-07 05:29N 46°04' W 001°16'0 0.3
2017-Dec-07 04:59N 46°03' W 001°16'0 0.2
2017-Dec-07 04:29N 46°03' W 001°16'0 0.1
2017-Dec-07 03:59N 46°03' W 001°16'0 0.0
2017-Dec-07 03:29N 46°03' W 001°16'0 0.0
2017-Dec-07 02:59N 46°03' W 001°16'0 0.0
2017-Dec-07 02:29N 46°03' W 001°16'0 0.0
2017-Dec-07 01:59N 46°03' W 001°16'0 0.0
2017-Dec-07 01:29N 46°03' W 001°16'0 0.0
2017-Dec-07 00:59N 46°03' W 001°16'0 0.3
2017-Dec-07 00:29N 46°03' W 001°16'0 0.2
2017-Dec-06 23:59N 46°04' W 001°16'0 0.0
2017-Dec-06 23:29N 46°03' W 001°16'0 0.0
2017-Dec-06 22:59N 46°03' W 001°16'0 0.0
2017-Dec-06 22:29N 46°03' W 001°16'0 0.0
2017-Dec-06 21:59N 46°03' W 001°16'0 0.0
2017-Dec-06 21:29N 46°03' W 001°16'0 0.0
2017-Dec-06 20:59N 46°03' W 001°16'  
2017-Dec-04 10:29N 46°03' W 001°16'0 0.2
2017-Dec-04 09:59N 46°03' W 001°16'0 0.2
2017-Dec-04 09:29N 46°03' W 001°16'0 0.0
2017-Dec-04 08:59N 46°03' W 001°16'0 0.0
2017-Dec-04 08:29N 46°03' W 001°16'0 0.0
2017-Dec-04 07:59N 46°03' W 001°16'0 0.0
2017-Dec-04 07:29N 46°03' W 001°16'0 0.0
2017-Dec-04 06:59N 46°03' W 001°16'0 0.0
2017-Dec-04 06:29N 46°03' W 001°16'0 0.0
2017-Dec-04 05:59N 46°03' W 001°16'0 0.0
2017-Dec-04 05:29N 46°03' W 001°16'0 0.2
2017-Dec-04 04:59N 46°03' W 001°16'0 0.3
2017-Dec-04 04:29N 46°03' W 001°16'0 0.1
2017-Dec-04 03:59N 46°03' W 001°16'0 0.0
2017-Dec-04 03:29N 46°03' W 001°16'0 0.0
2017-Dec-04 02:59N 46°03' W 001°16'0 0.0
2017-Dec-04 02:29N 46°03' W 001°16'0 0.0
2017-Dec-04 01:59N 46°03' W 001°16'0 0.0
2017-Dec-04 01:29N 46°03' W 001°16'0 0.0
2017-Dec-04 00:59N 46°03' W 001°16'0 0.0
2017-Dec-04 00:29N 46°03' W 001°16'0 0.0
2017-Dec-03 23:59N 46°03' W 001°16'0 0.0
2017-Dec-03 23:29N 46°03' W 001°16'0 0.0
2017-Dec-03 22:59N 46°03' W 001°16'0 0.0
2017-Dec-03 22:26N 46°03' W 001°16'0 0.1
2017-Dec-03 21:59N 46°03' W 001°16'0 0.3
2017-Dec-03 21:29N 46°04' W 001°16'0 0.1
2017-Dec-03 20:59N 46°03' W 001°16'0 0.0
2017-Dec-03 20:29N 46°03' W 001°16'0 0.0
2017-Dec-03 19:59N 46°03' W 001°16'0 0.0
2017-Dec-03 19:29N 46°03' W 001°16'0 0.0
2017-Dec-03 18:59N 46°03' W 001°16'0 0.0
2017-Dec-03 18:29N 46°03' W 001°16'0 0.0
2017-Dec-03 17:59N 46°03' W 001°16'0 0.0
2017-Dec-03 17:29N 46°03' W 001°16'0 0.0
2017-Dec-03 16:59N 46°03' W 001°16'0 0.0
2017-Dec-03 16:29N 46°03' W 001°16'0 0.0
2017-Dec-03 15:59N 46°04' W 001°16'0 0.0
2017-Dec-03 15:29N 46°03' W 001°16'0 0.2
2017-Dec-03 14:59N 46°03' W 001°16'0 0.1
2017-Dec-03 14:29N 46°03' W 001°16'0 0.0
2017-Dec-03 13:59N 46°03' W 001°16'0 0.1
2017-Dec-03 13:29N 46°03' W 001°16'0 0.0
2017-Dec-03 12:59N 46°03' W 001°16'0 0.0
2017-Dec-03 12:29N 46°03' W 001°16'0 0.0
2017-Dec-03 11:59N 46°03' W 001°16'0 0.0
2017-Dec-03 11:29N 46°03' W 001°16'0 0.0
2017-Dec-03 10:59N 46°03' W 001°16'0 0.0
2017-Dec-03 10:29N 46°03' W 001°16'0 0.0
2017-Dec-03 09:59N 46°03' W 001°16'0 0.2
2017-Dec-03 09:29N 46°03' W 001°16'0 0.2
2017-Dec-03 08:59N 46°04' W 001°16'0 0.1
2017-Dec-03 08:29N 46°04' W 001°16'0 0.0
2017-Dec-03 07:59N 46°04' W 001°16'0 0.0
2017-Dec-03 07:29N 46°03' W 001°16'0 0.0
2017-Dec-03 06:59N 46°03' W 001°16'0 0.0
2017-Dec-03 06:29N 46°03' W 001°16'0 0.1
2017-Dec-03 05:59N 46°03' W 001°16'0 0.0
2017-Dec-03 05:29N 46°03' W 001°16'0 0.0
2017-Dec-03 04:59N 46°03' W 001°16'0 0.0
2017-Dec-03 04:29N 46°03' W 001°16'0 0.2
2017-Dec-03 03:59N 46°03' W 001°16'0 0.2
2017-Dec-03 03:29N 46°03' W 001°16'0 0.2
2017-Dec-03 02:59N 46°03' W 001°16'0 0.8
2017-Dec-03 02:30N 46°03' W 001°16'5 9.1
2017-Dec-03 02:00N 46°08' W 001°15'2 3.7
2017-Dec-03 01:29N 46°09' W 001°14'0 0.0
2017-Dec-03 00:59N 46°09' W 001°14'0 0.0
2017-Dec-03 00:29N 46°09' W 001°14'0 0.0
2017-Dec-02 23:59N 46°09' W 001°14'0 0.0
2017-Dec-02 23:29N 46°09' W 001°14'0 0.0
2017-Dec-02 22:59N 46°09' W 001°14'0 0.0
2017-Dec-02 22:29N 46°09' W 001°14'0 0.0
2017-Dec-02 21:59N 46°09' W 001°14'0 0.0
2017-Dec-02 21:29N 46°09' W 001°14'0 0.0
2017-Dec-02 20:59N 46°10' W 001°14'0 0.0
2017-Dec-02 20:29N 46°09' W 001°14'0 0.0
2017-Dec-02 19:59N 46°09' W 001°14'0 0.0
2017-Dec-02 19:29N 46°09' W 001°14'0 0.0
2017-Dec-02 18:59N 46°09' W 001°14'0 0.0
2017-Dec-02 18:29N 46°09' W 001°14'0 0.0
2017-Dec-02 17:59N 46°09' W 001°14'0 0.0
2017-Dec-02 17:29N 46°09' W 001°14'0 0.0
2017-Dec-02 16:59N 46°09' W 001°14'0 0.0
2017-Dec-02 16:29N 46°09' W 001°14'0 0.0
2017-Dec-02 15:59N 46°09' W 001°14'0 0.0
2017-Dec-02 15:29N 46°09' W 001°14'0 0.0
2017-Dec-02 14:59N 46°09' W 001°14'0 0.0
2017-Dec-02 14:29N 46°09' W 001°14'0 0.0
2017-Dec-02 13:59N 46°09' W 001°14'0 0.0
2017-Dec-02 13:29N 46°09' W 001°14'0 0.0
2017-Dec-02 12:59N 46°09' W 001°14'0 0.0
2017-Dec-02 12:29N 46°09' W 001°14'0 0.0
2017-Dec-02 11:59N 46°09' W 001°14'0 0.0
2017-Dec-02 11:29N 46°09' W 001°14'0 0.0
2017-Dec-02 10:59N 46°09' W 001°14'0 0.0
2017-Dec-02 10:29N 46°09' W 001°14'0 0.0
2017-Dec-02 09:59N 46°09' W 001°14'0 0.0
2017-Dec-02 09:29N 46°09' W 001°14'0 0.0
2017-Dec-02 08:59N 46°09' W 001°14'0 0.0
2017-Dec-02 08:26N 46°09' W 001°14'0 0.0
2017-Dec-02 07:59N 46°09' W 001°14'0 0.0
2017-Dec-02 07:29N 46°09' W 001°14'0 0.0
2017-Dec-02 06:59N 46°09' W 001°14'0 0.0
2017-Dec-02 06:29N 46°09' W 001°14'0 0.0
2017-Dec-02 05:59N 46°09' W 001°14'0 0.0
2017-Dec-02 05:29N 46°09' W 001°14'0 0.0
2017-Dec-02 04:59N 46°09' W 001°14'0 0.0
2017-Dec-02 04:29N 46°09' W 001°14'0 0.0
2017-Dec-02 03:59N 46°09' W 001°14'0 0.0
2017-Dec-02 03:29N 46°09' W 001°14'0 0.0
2017-Dec-02 02:59N 46°09' W 001°14'0 0.0
2017-Dec-02 02:29N 46°09' W 001°14'0 0.0
2017-Dec-02 01:59N 46°09' W 001°14'0 0.0
2017-Dec-02 01:26N 46°09' W 001°14'0 0.0
2017-Dec-02 00:59N 46°09' W 001°14'0 0.0
2017-Dec-02 00:29N 46°09' W 001°14'0 0.0
2017-Dec-01 23:59N 46°09' W 001°14'0 0.0
2017-Dec-01 23:29N 46°09' W 001°14'0 0.0
2017-Dec-01 22:59N 46°09' W 001°14'0 0.0
2017-Dec-01 22:29N 46°09' W 001°14'0 0.0
2017-Dec-01 21:59N 46°09' W 001°14'0 0.0
2017-Dec-01 21:29N 46°09' W 001°14'0 0.0
2017-Dec-01 20:59N 46°09' W 001°14'0 0.0
2017-Dec-01 20:29N 46°09' W 001°14'0 0.0
2017-Dec-01 19:59N 46°09' W 001°14'0 0.0
2017-Dec-01 19:29N 46°09' W 001°14'0 0.0
2017-Dec-01 18:59N 46°09' W 001°14'0 0.0
2017-Dec-01 18:29N 46°09' W 001°14'0 0.0
2017-Dec-01 17:59N 46°09' W 001°14'0 0.0
2017-Dec-01 17:29N 46°09' W 001°14'0 0.0
2017-Dec-01 16:59N 46°09' W 001°14'  

Dump ship's entire track history